createdAt,value
2019-01-17T00:02:27.198Z,99967.80
2019-01-17T00:05:19.593Z,99963.20
2019-01-17T00:08:10.006Z,99954.75
2019-01-17T00:10:56.850Z,99956.49
2019-01-17T00:13:45.225Z,99965.38
2019-01-17T00:16:43.589Z,99960.66
2019-01-17T00:19:45.610Z,99963.20
2019-01-17T00:22:35.362Z,99960.66
2019-01-17T00:25:38.679Z,99956.84
2019-01-17T00:28:21.677Z,99959.39
2019-01-17T00:31:06.564Z,99961.45
2019-01-17T00:34:04.770Z,99955.50
2019-01-17T00:36:56.636Z,99956.84
2019-01-17T00:39:36.046Z,99949.27
2019-01-17T00:42:37.203Z,99950.94
2019-01-17T00:45:43.581Z,99950.94
2019-01-17T00:48:22.987Z,99956.02
2019-01-17T00:51:11.337Z,99950.06
2019-01-17T00:54:01.333Z,99959.03
2019-01-17T00:56:49.331Z,99958.63
2019-01-17T00:59:34.844Z,99961.21
2019-01-17T01:02:21.605Z,99953.67
2019-01-17T01:05:19.078Z,99969.75
2019-01-17T01:08:07.467Z,99959.59
2019-01-17T01:11:02.974Z,99964.78
2019-01-17T01:13:45.873Z,99966.01
2019-01-17T01:16:35.443Z,99963.98
2019-01-17T01:19:31.260Z,99953.83
2019-01-17T01:22:22.123Z,99953.83
2019-01-17T01:25:22.647Z,99953.47
2019-01-17T01:28:27.263Z,99962.83
2019-01-17T01:31:08.288Z,99961.96
2019-01-17T01:33:54.892Z,99969.66
2019-01-17T01:36:47.578Z,99968.03
2019-01-17T01:39:29.764Z,99963.34
2019-01-17T01:42:37.734Z,99973.91
2019-01-17T01:45:26.680Z,99982.00
2019-01-17T01:48:14.920Z,99987.13
2019-01-17T01:51:06.041Z,99981.17
2019-01-17T01:53:38.309Z,99987.99
2019-01-17T01:56:08.675Z,99996.09
2019-01-17T01:58:40.204Z,99998.16
2019-01-17T02:01:17.315Z,99990.61
2019-01-17T02:03:46.806Z,99995.69
2019-01-17T02:06:17.643Z,99997.36
2019-01-17T02:08:49.817Z,100008.43
2019-01-17T02:11:20.468Z,100010.97
2019-01-17T02:13:51.101Z,100011.05
2019-01-17T02:16:21.402Z,100005.89
2019-01-17T02:18:53.127Z,99999.50
2019-01-17T02:21:23.661Z,100002.87
2019-01-17T02:23:53.987Z,100016.41
2019-01-17T02:26:24.491Z,100016.41
2019-01-17T02:28:54.786Z,100021.48
2019-01-17T02:31:25.131Z,100012.12
2019-01-17T02:33:55.587Z,100019.74
2019-01-17T02:36:25.895Z,100006.24
2019-01-17T02:38:56.201Z,100016.73
2019-01-17T02:41:26.591Z,100022.56
2019-01-17T02:43:56.917Z,100020.02
2019-01-17T02:46:27.514Z,100026.38
2019-01-17T02:48:57.958Z,100024.27
2019-01-17T02:51:29.868Z,100010.49
2019-01-17T02:54:00.175Z,100010.49
2019-01-17T02:56:35.086Z,100017.32
2019-01-17T02:59:05.501Z,100011.77
2019-01-17T03:01:35.877Z,100012.16
2019-01-17T03:04:06.278Z,100010.17
2019-01-17T03:06:36.991Z,99997.12
2019-01-17T03:09:08.254Z,99989.10
2019-01-17T03:11:38.564Z,99985.34
2019-01-17T03:14:08.865Z,99986.61
2019-01-17T03:16:39.513Z,99993.87
2019-01-17T03:19:10.347Z,99989.66
2019-01-17T03:21:40.978Z,99996.48
2019-01-17T03:24:11.673Z,99995.61
2019-01-17T03:26:46.729Z,99995.61
2019-01-17T03:29:16.561Z,99990.38
2019-01-17T03:31:50.087Z,99989.78
2019-01-17T03:34:20.246Z,99995.34
2019-01-17T03:36:50.545Z,99993.66
2019-01-17T03:39:22.111Z,99983.71
2019-01-17T03:41:52.450Z,99983.71
2019-01-17T03:44:23.291Z,99989.78
2019-01-17T03:46:53.914Z,100000.45
2019-01-17T03:49:25.602Z,99997.16
2019-01-17T03:51:59.721Z,99990.02
2019-01-17T03:54:30.316Z,100003.59
2019-01-17T03:57:03.041Z,100002.24
2019-01-17T03:59:33.264Z,100020.09
2019-01-17T04:02:04.135Z,100014.66
2019-01-17T04:04:34.661Z,100006.69
2019-01-17T04:07:05.143Z,100015.53
2019-01-17T04:09:39.689Z,100012.20
2019-01-17T04:12:09.962Z,100009.23
2019-01-17T04:14:40.909Z,100014.31
2019-01-17T04:17:11.496Z,100009.23
2019-01-17T04:19:41.856Z,100010.17
2019-01-17T04:22:15.037Z,100000.77
2019-01-17T04:24:45.533Z,99999.89
2019-01-17T04:27:16.001Z,99994.23
2019-01-17T04:29:46.577Z,100000.22
2019-01-17T04:32:17.284Z,100002.64
2019-01-17T04:34:47.861Z,99991.56
2019-01-17T04:37:18.394Z,99990.58
2019-01-17T04:39:49.999Z,99987.59
2019-01-17T04:42:22.207Z,99990.65
2019-01-17T04:44:52.514Z,99991.33
2019-01-17T04:47:22.863Z,99993.31
2019-01-17T04:49:53.315Z,99987.75
2019-01-17T04:52:27.443Z,99982.28
2019-01-17T04:55:04.806Z,99980.26
2019-01-17T04:57:29.809Z,99981.53
2019-01-17T05:00:00.469Z,99978.95
2019-01-17T05:02:31.119Z,99976.80
2019-01-17T05:05:01.722Z,99982.23
2019-01-17T05:07:32.303Z,99981.13
2019-01-17T05:10:05.697Z,99974.94
2019-01-17T05:12:36.107Z,99986.20
2019-01-17T05:15:08.557Z,99976.40
2019-01-17T05:17:41.217Z,99976.91
2019-01-17T05:20:14.543Z,99975.76
2019-01-17T05:22:45.513Z,99975.36
2019-01-17T05:25:16.261Z,99974.12
2019-01-17T05:27:46.953Z,99979.40
2019-01-17T05:30:18.378Z,99982.89
2019-01-17T05:32:49.907Z,99983.01
2019-01-17T05:35:20.185Z,99972.84
2019-01-17T05:37:51.807Z,99970.66
2019-01-17T05:40:22.250Z,99971.93
2019-01-17T05:42:53.784Z,99975.78
2019-01-17T05:45:24.123Z,99979.20
2019-01-17T05:47:55.522Z,99985.55
2019-01-17T05:50:26.235Z,99978.28
2019-01-17T05:52:56.637Z,99985.11
2019-01-17T05:55:26.910Z,99976.66
2019-01-17T05:57:57.203Z,99977.48
2019-01-17T06:00:28.074Z,99985.55
2019-01-17T06:02:58.429Z,99983.48
2019-01-17T06:05:30.711Z,99981.30
2019-01-17T06:08:01.112Z,99978.68
2019-01-17T06:10:31.830Z,99978.68
2019-01-17T06:13:02.942Z,99973.24
2019-01-17T06:15:33.932Z,99975.27
2019-01-17T06:18:08.394Z,99976.03
2019-01-17T06:20:38.690Z,99976.67
2019-01-17T06:23:13.445Z,99980.61
2019-01-17T06:25:44.144Z,99970.34
2019-01-17T06:28:16.313Z,99970.97
2019-01-17T06:30:48.489Z,99973.03
2019-01-17T06:33:18.830Z,99973.55
2019-01-17T06:35:50.792Z,99974.89
2019-01-17T06:38:22.153Z,99974.89
2019-01-17T06:40:53.485Z,99969.19
2019-01-17T06:43:23.851Z,99971.61
2019-01-17T06:45:55.128Z,99967.56
2019-01-17T06:48:25.413Z,99968.39
2019-01-17T06:50:56.506Z,99965.48
2019-01-17T06:53:28.676Z,99976.20
2019-01-17T06:55:59.218Z,99973.86
2019-01-17T06:58:29.527Z,99968.02
2019-01-17T07:01:02.797Z,99970.32
2019-01-17T07:03:33.088Z,99972.06
2019-01-17T07:06:04.991Z,99971.59
2019-01-17T07:08:36.238Z,99975.91
2019-01-17T07:11:06.536Z,99972.46
2019-01-17T07:13:37.174Z,99979.20
2019-01-17T07:16:07.778Z,99973.22
2019-01-17T07:18:45.019Z,99974.48
2019-01-17T07:21:11.826Z,99975.04
2019-01-17T07:23:42.226Z,99977.19
2019-01-17T07:26:12.910Z,99976.74
2019-01-17T07:28:43.999Z,99965.95
2019-01-17T07:31:16.081Z,99970.17
2019-01-17T07:33:46.636Z,99973.19
2019-01-17T07:36:20.764Z,99981.13
2019-01-17T07:38:51.285Z,99964.03
2019-01-17T07:41:21.575Z,99965.02
2019-01-17T07:43:52.249Z,99961.29
2019-01-17T07:46:22.790Z,99960.42
2019-01-17T07:48:54.343Z,99969.42
2019-01-17T07:51:25.796Z,99963.75
2019-01-17T07:53:59.157Z,99969.97
2019-01-17T07:56:29.510Z,99970.92
2019-01-17T07:58:59.863Z,99965.59
2019-01-17T08:01:30.150Z,99964.80
2019-01-17T08:04:02.116Z,99966.98
2019-01-17T08:06:32.636Z,99965.86
2019-01-17T08:09:04.657Z,99968.91
2019-01-17T08:11:37.123Z,99975.27
2019-01-17T08:14:08.446Z,99976.42
2019-01-17T08:16:38.833Z,99971.06
2019-01-17T08:19:09.320Z,99977.88
2019-01-17T08:21:39.871Z,99974.76
2019-01-17T08:24:11.573Z,99973.38
2019-01-17T08:26:42.158Z,99975.12
2019-01-17T08:29:12.536Z,99972.09
2019-01-17T08:31:44.472Z,99972.02
2019-01-17T08:34:14.839Z,99969.31
2019-01-17T08:36:47.210Z,99976.25
2019-01-17T08:39:17.596Z,99969.70
2019-01-17T08:41:48.119Z,99964.39
2019-01-17T08:44:18.758Z,99961.77
2019-01-17T08:46:49.386Z,99968.84
2019-01-17T08:49:21.784Z,99970.76
2019-01-17T08:51:52.260Z,99968.12
2019-01-17T08:54:22.702Z,99970.20
2019-01-17T08:56:54.331Z,99962.59
2019-01-17T08:59:24.882Z,99955.97
2019-01-17T09:01:57.166Z,99951.73
2019-01-17T09:04:27.508Z,99951.73
2019-01-17T09:06:57.849Z,99958.09
2019-01-17T09:09:34.020Z,99952.84
2019-01-17T09:12:04.260Z,99956.03
2019-01-17T09:14:35.153Z,99950.69
2019-01-17T09:17:06.680Z,99947.45
2019-01-17T09:19:37.061Z,99945.17
2019-01-17T09:22:10.793Z,99941.05
2019-01-17T09:24:42.894Z,99940.41
2019-01-17T09:27:14.370Z,99937.64
2019-01-17T09:29:45.011Z,99926.66
2019-01-17T09:32:15.490Z,99927.14
2019-01-17T09:34:45.796Z,99919.25
2019-01-17T09:37:17.241Z,99920.26
2019-01-17T09:39:47.918Z,99922.01
2019-01-17T09:42:26.677Z,99921.41
2019-01-17T09:44:56.899Z,99927.59
2019-01-17T09:47:28.572Z,99926.67
2019-01-17T09:49:58.955Z,99918.14
2019-01-17T09:52:32.988Z,99919.51
2019-01-17T09:55:12.436Z,99920.00
2019-01-17T09:57:45.032Z,99925.30
2019-01-17T10:00:18.503Z,99925.30
2019-01-17T10:02:49.113Z,99924.63
2019-01-17T10:05:19.629Z,99922.66
2019-01-17T10:07:51.936Z,99918.34
2019-01-17T10:10:22.265Z,99924.16
2019-01-17T10:12:55.533Z,99915.67
2019-01-17T10:15:35.984Z,99918.60
2019-01-17T10:18:36.612Z,99921.97
2019-01-17T10:22:00.164Z,99915.19
2019-01-17T10:25:01.855Z,99920.22
2019-01-17T10:28:21.369Z,99928.70
2019-01-17T10:31:32.823Z,99922.34
2019-01-17T10:34:41.232Z,99923.02
2019-01-17T10:37:48.677Z,99919.05
2019-01-17T10:41:01.614Z,99920.54
2019-01-17T10:44:15.860Z,99915.47
2019-01-17T10:47:07.816Z,99913.06
2019-01-17T10:49:51.887Z,99917.73
2019-01-17T10:53:06.142Z,99924.25
2019-01-17T10:56:13.921Z,99920.25
2019-01-17T10:59:42.389Z,99918.56
2019-01-17T11:02:51.420Z,99915.98
2019-01-17T11:05:47.810Z,99916.25
2019-01-17T11:08:56.233Z,99917.02
2019-01-17T11:11:55.648Z,99913.86
2019-01-17T11:14:48.285Z,99911.06
2019-01-17T11:17:55.452Z,99910.04
2019-01-17T11:21:19.007Z,99903.72
2019-01-17T11:24:00.045Z,99899.41
2019-01-17T11:27:17.090Z,99902.81
2019-01-17T11:30:10.599Z,99907.45
2019-01-17T11:33:13.900Z,99909.23
2019-01-17T11:36:09.461Z,99909.23
2019-01-17T11:39:22.379Z,99915.03
2019-01-17T11:42:38.452Z,99916.34
2019-01-17T11:45:49.767Z,99906.94
2019-01-17T11:49:01.667Z,99923.38
2019-01-17T11:51:56.028Z,99923.91
2019-01-17T11:54:41.187Z,99923.43
2019-01-17T11:58:02.257Z,99932.74
2019-01-17T12:01:12.967Z,99934.81
2019-01-17T12:04:14.528Z,99937.70
2019-01-17T12:06:45.048Z,99945.08
2019-01-17T12:09:18.053Z,99944.72
2019-01-17T12:11:49.445Z,99947.78
2019-01-17T12:14:21.776Z,99951.54
2019-01-17T12:16:52.084Z,99954.10
2019-01-17T12:19:22.430Z,99960.27
2019-01-17T12:21:53.855Z,99972.63
2019-01-17T12:24:24.237Z,99972.63
2019-01-17T12:26:56.130Z,99974.80
2019-01-17T12:29:26.522Z,99975.99
2019-01-17T12:31:58.501Z,99974.06
2019-01-17T12:34:28.985Z,99979.18
2019-01-17T12:37:00.879Z,99981.14
2019-01-17T12:39:31.562Z,99976.34
2019-01-17T12:42:02.459Z,99981.33
2019-01-17T12:44:39.791Z,99983.08
2019-01-17T12:47:06.496Z,99986.48
2019-01-17T12:49:37.131Z,99982.55
2019-01-17T12:52:07.561Z,99994.88
2019-01-17T12:54:37.899Z,100001.62
2019-01-17T12:57:09.824Z,100001.83
2019-01-17T12:59:41.425Z,100009.05
2019-01-17T13:02:14.157Z,100002.97
2019-01-17T13:04:44.791Z,100007.17
2019-01-17T13:07:17.661Z,100017.17
2019-01-17T13:09:47.948Z,100013.45
2019-01-17T13:12:18.607Z,100014.86
2019-01-17T13:14:48.946Z,100020.63
2019-01-17T13:17:19.271Z,100026.19
2019-01-17T13:19:49.797Z,100030.64
2019-01-17T13:22:20.239Z,100029.20
2019-01-17T13:24:50.842Z,100038.02
2019-01-17T13:27:21.200Z,100038.20
2019-01-17T13:29:52.433Z,100049.30
2019-01-17T13:32:24.703Z,100045.53
2019-01-17T13:34:55.135Z,100054.56
2019-01-17T13:37:25.508Z,100060.68
2019-01-17T13:39:56.103Z,100056.50
2019-01-17T13:42:26.421Z,100065.16
2019-01-17T13:44:57.013Z,100074.75
2019-01-17T13:47:27.652Z,100079.75
2019-01-17T13:49:58.614Z,100090.92
2019-01-17T13:52:30.219Z,100094.17
2019-01-17T13:55:02.780Z,100106.91
2019-01-17T13:57:33.064Z,100108.27
2019-01-17T14:00:09.489Z,100111.59
2019-01-17T14:02:40.870Z,100110.39
2019-01-17T14:05:12.151Z,100114.66
2019-01-17T14:07:42.542Z,100123.80
2019-01-17T14:10:15.698Z,100118.08
2019-01-17T14:12:46.002Z,100118.08
2019-01-17T14:15:24.512Z,100130.36
2019-01-17T14:17:56.454Z,100141.88
2019-01-17T14:20:27.249Z,100149.71
2019-01-17T14:23:00.923Z,100152.92
2019-01-17T14:25:31.458Z,100158.44
2019-01-17T14:28:01.918Z,100155.45
2019-01-17T14:30:34.369Z,100170.78
2019-01-17T14:33:04.751Z,100160.76
2019-01-17T14:35:38.165Z,100172.95
2019-01-17T14:38:10.108Z,100178.62
2019-01-17T14:40:41.036Z,100187.97
2019-01-17T14:43:11.654Z,100185.01
2019-01-17T14:45:43.890Z,100181.34
2019-01-17T14:48:14.334Z,100194.60
2019-01-17T14:50:46.017Z,100224.05
2019-01-17T14:53:16.603Z,100235.14
2019-01-17T14:55:47.833Z,100229.77
2019-01-17T14:58:19.391Z,100222.30
2019-01-17T15:00:53.573Z,100229.01
2019-01-17T15:03:23.960Z,100236.66
2019-01-17T15:05:55.389Z,100241.48
2019-01-17T15:08:25.886Z,100240.61
2019-01-17T15:10:56.199Z,100252.00
2019-01-17T15:13:30.145Z,100252.55
2019-01-17T15:16:03.150Z,100262.49
2019-01-17T15:18:33.669Z,100266.45
2019-01-17T15:21:04.081Z,100268.92
2019-01-17T15:23:35.784Z,100274.14
2019-01-17T15:26:06.110Z,100271.77
2019-01-17T15:28:36.720Z,100273.98
2019-01-17T15:31:07.103Z,100280.30
2019-01-17T15:33:37.900Z,100286.23
2019-01-17T15:36:08.613Z,100294.54
2019-01-17T15:38:39.495Z,100300.05
2019-01-17T15:41:09.832Z,100296.75
2019-01-17T15:43:40.163Z,100305.59
2019-01-17T15:46:10.840Z,100301.03
2019-01-17T15:48:41.292Z,100305.11
2019-01-17T15:51:11.670Z,100309.39
2019-01-17T15:53:43.291Z,100314.11
2019-01-17T15:56:13.910Z,100320.08
2019-01-17T15:58:45.007Z,100318.47
2019-01-17T16:01:19.492Z,100328.20
2019-01-17T16:03:50.635Z,100330.75
2019-01-17T16:06:21.259Z,100339.31
2019-01-17T16:08:52.028Z,100338.53
2019-01-17T16:11:22.703Z,100346.57
2019-01-17T16:13:53.015Z,100356.99
2019-01-17T16:16:24.134Z,100362.19
2019-01-17T16:18:54.582Z,100369.13
2019-01-17T16:21:24.955Z,100368.80
2019-01-17T16:23:55.636Z,100377.82
2019-01-17T16:26:26.705Z,100386.00
2019-01-17T16:29:02.516Z,100384.19
2019-01-17T16:31:33.646Z,100382.19
2019-01-17T16:34:04.006Z,100380.00
2019-01-17T16:36:35.920Z,100394.75
2019-01-17T16:39:09.184Z,100392.81
2019-01-17T16:41:42.087Z,100404.86
2019-01-17T16:44:14.010Z,100397.95
2019-01-17T16:46:44.509Z,100402.82
2019-01-17T16:49:14.857Z,100403.64
2019-01-17T16:51:45.806Z,100409.19
2019-01-17T16:54:16.156Z,100418.68
2019-01-17T16:56:49.149Z,100417.78
2019-01-17T16:59:20.931Z,100422.55
2019-01-17T17:01:52.757Z,100417.07
2019-01-17T17:04:29.113Z,100429.08
2019-01-17T17:06:59.908Z,100427.22
2019-01-17T17:09:30.340Z,100434.02
2019-01-17T17:12:02.249Z,100443.82
2019-01-17T17:14:32.693Z,100447.78
2019-01-17T17:17:03.336Z,100449.37
2019-01-17T17:19:33.927Z,100457.41
2019-01-17T17:22:05.471Z,100458.33
2019-01-17T17:24:35.800Z,100466.55
2019-01-17T17:27:07.846Z,100465.06
2019-01-17T17:29:38.478Z,100472.13
2019-01-17T17:32:16.627Z,100481.61
2019-01-17T17:34:49.159Z,100476.55
2019-01-17T17:37:22.391Z,100490.63
2019-01-17T17:39:52.768Z,100492.08
2019-01-17T17:42:24.381Z,100499.84
2019-01-17T17:44:55.003Z,100499.84
2019-01-17T17:47:25.356Z,100504.02
2019-01-17T17:49:55.805Z,100516.20
2019-01-17T17:52:26.183Z,100516.20
2019-01-17T17:54:56.654Z,100526.08
2019-01-17T17:57:29.989Z,100523.09
2019-01-17T18:00:00.348Z,100527.27
2019-01-17T18:02:35.141Z,100520.03
2019-01-17T18:05:07.755Z,100533.66
2019-01-17T18:07:41.253Z,100537.87
2019-01-17T18:10:14.921Z,100546.41
2019-01-17T18:12:48.747Z,100536.11
2019-01-17T18:15:19.584Z,100540.62
2019-01-17T18:17:59.486Z,100551.31
2019-01-17T18:20:26.357Z,100555.67
2019-01-17T18:23:05.823Z,100560.06
2019-01-17T18:25:38.745Z,100568.03
2019-01-17T18:28:09.136Z,100561.53
2019-01-17T18:30:40.516Z,100565.91
2019-01-17T18:33:19.395Z,100578.55
2019-01-17T18:35:50.828Z,100581.03
2019-01-17T18:38:21.194Z,100583.00
2019-01-17T18:40:51.905Z,100598.47
2019-01-17T18:43:22.463Z,100601.44
2019-01-17T18:46:18.397Z,100606.18
2019-01-17T18:48:25.028Z,100617.17
2019-01-17T18:50:56.861Z,100614.75
2019-01-17T18:53:27.862Z,100624.37
2019-01-17T18:55:58.136Z,100626.90
2019-01-17T18:58:28.912Z,100629.04
2019-01-17T19:00:59.266Z,100632.16
2019-01-17T19:03:29.988Z,100634.74
2019-01-17T19:06:00.362Z,100636.63
2019-01-17T19:08:32.512Z,100642.89
2019-01-17T19:11:03.970Z,100642.89
2019-01-17T19:13:37.876Z,100641.16
2019-01-17T19:16:08.280Z,100657.10
2019-01-17T19:18:39.475Z,100672.64
2019-01-17T19:21:10.455Z,100685.18
2019-01-17T19:23:50.988Z,100699.41
2019-01-17T19:26:21.864Z,100701.64
2019-01-17T19:28:53.576Z,100710.90
2019-01-17T19:31:31.257Z,100708.33
2019-01-17T19:34:01.644Z,100716.55
2019-01-17T19:36:32.000Z,100716.53
2019-01-17T19:39:04.206Z,100728.39
2019-01-17T19:41:49.723Z,100727.65
2019-01-17T19:44:11.387Z,100732.75
2019-01-17T19:46:41.837Z,100730.05
2019-01-17T19:49:22.302Z,100746.63
2019-01-17T19:51:53.079Z,100752.67
2019-01-17T19:54:23.627Z,100755.92
2019-01-17T19:56:53.994Z,100755.92
2019-01-17T19:59:24.724Z,100763.51
2019-01-17T20:01:55.208Z,100773.81
2019-01-17T20:04:27.802Z,100775.30
2019-01-17T20:06:58.170Z,100783.26
2019-01-17T20:09:28.597Z,100782.95
2019-01-17T20:12:00.841Z,100794.81
2019-01-17T20:14:33.063Z,100801.11
2019-01-17T20:17:03.466Z,100803.96
2019-01-17T20:19:33.898Z,100808.61
2019-01-17T20:22:04.316Z,100812.08
2019-01-17T20:24:34.982Z,100812.20
2019-01-17T20:27:11.553Z,100828.62
2019-01-17T20:29:43.390Z,100844.80
2019-01-17T20:32:18.759Z,100840.47
2019-01-17T20:34:48.678Z,100843.33
2019-01-17T20:37:20.592Z,100839.84
2019-01-17T20:39:51.110Z,100845.22
2019-01-17T20:42:24.768Z,100849.55
2019-01-17T20:44:56.435Z,100854.84
2019-01-17T20:47:26.798Z,100852.06
2019-01-17T20:50:06.675Z,100857.27
2019-01-17T20:52:37.276Z,100868.83
2019-01-17T20:55:08.895Z,100871.71
2019-01-17T20:57:46.633Z,100881.29
2019-01-17T21:00:20.979Z,100883.66
2019-01-17T21:02:52.702Z,100888.48
2019-01-17T21:05:24.405Z,100892.13
2019-01-17T21:07:54.989Z,100903.91
2019-01-17T21:10:29.166Z,100916.13
2019-01-17T21:12:59.833Z,100914.28
2019-01-17T21:15:30.819Z,100920.35
2019-01-17T21:18:10.257Z,100933.97
2019-01-17T21:20:40.627Z,100927.20
2019-01-17T21:23:14.624Z,100931.41
2019-01-17T21:25:46.849Z,100933.20
2019-01-17T21:28:17.847Z,100934.18
2019-01-17T21:30:48.236Z,100944.36
2019-01-17T21:33:25.872Z,100953.84
2019-01-17T21:35:56.751Z,100956.44
2019-01-17T21:38:29.502Z,100964.73
2019-01-17T21:41:13.501Z,100970.75
2019-01-17T21:43:35.090Z,100967.94
2019-01-17T21:46:05.515Z,100968.00
2019-01-17T21:48:42.252Z,100970.06
2019-01-17T21:51:12.720Z,100969.36
2019-01-17T21:53:43.056Z,100980.14
2019-01-17T21:56:13.358Z,100989.75
2019-01-17T21:58:45.649Z,100994.03
2019-01-17T22:01:16.028Z,100998.09
2019-01-17T22:03:49.784Z,100995.52
2019-01-17T22:06:20.480Z,101004.70
2019-01-17T22:08:52.512Z,101009.27
2019-01-17T22:11:22.896Z,101019.91
2019-01-17T22:13:55.879Z,101020.55
2019-01-17T22:16:28.099Z,101019.72
2019-01-17T22:19:01.055Z,101019.72
2019-01-17T22:21:32.428Z,101024.34
2019-01-17T22:24:04.588Z,101024.34
2019-01-17T22:26:34.881Z,101030.68
2019-01-17T22:29:06.532Z,101037.03
2019-01-17T22:31:38.501Z,101036.09
2019-01-17T22:34:10.099Z,101037.63
2019-01-17T22:36:40.753Z,101054.13
2019-01-17T22:39:11.108Z,101055.02
2019-01-17T22:41:42.192Z,101055.16
2019-01-17T22:44:12.843Z,101065.47
2019-01-17T22:46:43.168Z,101061.55
2019-01-17T22:49:13.518Z,101068.08
2019-01-17T22:51:43.865Z,101073.39
2019-01-17T22:54:14.194Z,101076.15
2019-01-17T22:56:46.600Z,101080.47
2019-01-17T22:59:17.316Z,101080.88
2019-01-17T23:01:51.066Z,101077.44
2019-01-17T23:04:21.421Z,101078.70
2019-01-17T23:06:51.765Z,101078.77
2019-01-17T23:09:22.392Z,101079.02
2019-01-17T23:11:54.053Z,101087.34
2019-01-17T23:14:24.519Z,101087.34
2019-01-17T23:16:57.128Z,101102.48
2019-01-17T23:19:27.725Z,101102.48
2019-01-17T23:21:59.606Z,101111.44
2019-01-17T23:24:30.296Z,101111.20
2019-01-17T23:27:00.670Z,101112.69
2019-01-17T23:29:31.026Z,101113.17
2019-01-17T23:32:02.695Z,101113.17
2019-01-17T23:34:33.025Z,101113.09
2019-01-17T23:37:03.510Z,101115.69
2019-01-17T23:39:38.804Z,101121.02
2019-01-17T23:42:09.809Z,101132.05
2019-01-17T23:44:40.447Z,101130.23
2019-01-17T23:47:10.776Z,101130.23
2019-01-17T23:49:41.350Z,101131.83
2019-01-17T23:52:11.739Z,101137.94
2019-01-17T23:54:42.465Z,101143.20
2019-01-17T23:57:12.875Z,101143.41
2019-01-17T23:59:43.466Z,101145.31
